Latest Weather Observations for Cape Jaffa

IDS60801

Issued at 9:02 am CDT Sunday 1 February 2015 (issued every 30 minutes, with the page automatically refreshed every 10 minutes)

About weather observations | Map of weather stations | Latest weather observations for SA | Other Formats
Station Details ID: 026095 Name: THE LIMESTONE Lat: -36.97 Lon: 139.72 Height: 17.0 m
Data from the previous 72 hours. | See also: Recent months at Cape Jaffa
Date/Time
CDT
Temp
°C
App
Temp
°C
Dew
Point
Rel
Hum
%
Delta-T
°C
Wind Press
QNH
hPa
Press
MSL
hPa
Rain
since 9 am
mm
Dir
 
Spd
km/h
Gust
km/h
Spd
kts
Gust
kts
01/09:00am 15.8 10.7 10.6 71 2.7 S 28 35 15 19 1018.0 1017.9 0.0
01/08:30am 15.7 11.6 10.0 69 3.0 SSE 22 30 12 16 1017.8 1017.7 0.0
01/08:00am 15.4 10.7 10.6 73 2.5 S 26 35 14 19 1017.4 1017.3 0.0
01/07:30am 14.8 10.4 9.0 68 3.0 S 22 30 12 16 1017.0 1016.9 0.0
01/07:00am 14.8 10.7 8.7 67 3.1 S 20 32 11 17 1016.7 1016.6 0.0
01/06:30am 14.5 11.0 8.7 68 2.9 SSE 17 26 9 14 1016.6 1016.5 0.0
01/06:00am 14.5 10.5 9.1 70 2.8 SSE 20 30 11 16 1016.3 1016.2 0.0
01/05:30am 14.3 9.9 9.1 71 2.6 SSE 22 32 12 17 1016.1 1016.0 0.0
01/05:00am 14.5 8.7 9.5 72 2.6 S 30 35 16 19 1015.9 1015.8 0.0
01/04:30am 14.3 9.0 9.7 74 2.4 S 28 39 15 21 1015.9 1015.8 0.0
01/04:00am 14.4 10.5 9.6 73 2.5 SSE 20 28 11 15 1016.1 1016.0 0.0
01/03:30am 14.5 10.3 9.7 73 2.5 S 22 32 12 17 1016.2 1016.1 0.0
01/03:00am 14.2 10.5 10.0 76 2.2 SSE 20 28 11 15 1016.5 1016.4 0.0
01/02:30am 14.6 10.7 9.4 71 2.7 SSE 20 30 11 16 1016.7 1016.6 0.0
01/02:00am 15.0 8.5 8.9 67 3.1 S 33 43 18 23 1016.8 1016.7 0.0
01/01:30am 14.7 7.7 9.9 73 2.5 S 37 46 20 25 1016.9 1016.8 0.0
01/01:00am 15.2 8.3 8.7 65 3.3 S 35 43 19 23 1017.0 1016.9 0.0
01/12:30am 15.1 9.8 8.6 65 3.3 S 26 37 14 20 1017.3 1017.2 0.0
01/12:00am 15.0 9.1 9.1 68 3.0 S 30 41 16 22 1017.3 1017.2 0.0
 
Date/Time
CDT
Temp
°C
App
Temp
°C
Dew
Point
Rel
Hum
%
Delta-T
°C
Wind Press
QNH
hPa
Press
MSL
hPa
Rain
since 9 am
mm
Dir
 
Spd
km/h
Gust
km/h
Spd
kts
Gust
kts
31/11:30pm 14.9 9.8 9.3 69 2.9 S 26 35 14 19 1017.4 1017.3 0.0
31/11:00pm 14.5 9.8 9.3 71 2.7 SSE 24 32 13 17 1017.3 1017.2 0.0
31/10:30pm 14.4 9.7 9.4 72 2.6 SSE 24 32 13 17 1017.4 1017.3 0.0
31/10:00pm 14.5 9.5 9.7 73 2.5 SSE 26 33 14 18 1017.3 1017.2 0.0
31/09:30pm 14.8 9.2 10.0 73 2.5 S 30 41 16 22 1017.0 1016.9 0.0
31/09:00pm 14.8 9.1 9.8 72 2.6 S 30 39 16 21 1016.8 1016.7 0.0
31/08:30pm 15.1 9.0 9.9 71 2.7 S 32 41 17 22 1016.7 1016.6 0.0
31/08:00pm 15.5 8.5 10.1 70 2.8 S 37 46 20 25 1016.5 1016.4 0.0
31/07:30pm 16.1 9.3 10.6 70 2.9 S 37 48 20 26 1016.2 1016.1 0.0
31/07:00pm 16.3 8.7 10.4 68 3.1 S 41 50 22 27 1016.1 1016.0 0.0
31/06:30pm 17.6 9.5 10.2 62 3.9 S 43 50 23 27 1015.8 1015.7 0.0
31/06:00pm 17.9 10.3 10.5 62 4.0 S 41 52 22 28 1015.7 1015.6 0.0
31/05:30pm 17.4 9.4 10.3 63 3.8 S 43 50 23 27 1015.7 1015.6 0.0
31/05:00pm 18.3 10.1 9.6 57 4.6 SSW 43 52 23 28 1015.6 1015.5 0.0
31/04:30pm 18.7 10.3 9.8 56 4.7 S 44 56 24 30 1015.5 1015.4 0.0
31/04:00pm 19.1 10.4 10.1 56 4.8 S 46 54 25 29 1015.7 1015.6 0.0
31/03:30pm 19.8 11.3 10.5 55 5.0 SSW 46 56 25 30 1015.8 1015.7 0.0
31/03:00pm 19.8 11.4 9.7 52 5.4 SSW 44 54 24 29 1015.9 1015.8 0.0
31/02:30pm 19.8 11.5 10.2 54 5.2 SSW 44 54 24 29 1016.1 1016.0 0.0
31/02:00pm 18.3 10.4 10.9 62 4.0 SSW 43 52 23 28 1016.1 1016.0 0.0
31/01:30pm 19.9 12.8 10.9 56 4.9 S 39 46 21 25 1016.1 1016.0 0.0
31/01:00pm 17.0 9.7 11.7 71 2.9 S 41 50 22 27 1016.6 1016.5 0.0
31/12:30pm 19.6 12.8 11.9 61 4.3 S 39 44 21 24 1016.7 1016.6 0.0
31/12:00pm 18.2 10.6 10.6 61 4.1 SSW 41 48 22 26 1016.8 1016.7 0.0
31/11:30am 18.7 12.0 11.0 61 4.2 S 37 46 20 25 1016.9 1016.8 0.0
31/11:00am 18.2 13.2 11.0 63 3.9 S 28 33 15 18 1017.0 1016.9 0.0
31/10:30am 17.6 12.6 10.9 65 3.6 S 28 37 15 20 1017.1 1017.0 0.0
31/10:00am 17.2 12.3 10.1 63 3.8 S 26 32 14 17 1017.1 1017.0 0.0
31/09:30am 16.8 12.3 10.0 64 3.6 S 24 32 13 17 1017.2 1017.1 0.0
31/09:00am 16.6 12.1 10.0 65 3.5 S 24 32 13 17 1017.2 1017.1 0.0
31/08:30am 16.4 12.5 10.7 69 3.0 S 22 26 12 14 1017.2 1017.1 0.0
31/08:00am 15.7 12.1 10.7 72 2.7 SSE 20 30 11 16 1016.7 1016.6 0.0
31/07:30am 15.2 11.8 10.4 73 2.5 SSE 19 26 10 14 1016.1 1016.0 0.0
31/07:00am 15.1 11.9 10.1 72 2.6 SSE 17 24 9 13 1015.6 1015.5 0.0
31/06:30am 14.8 11.7 10.2 74 2.4 SSE 17 22 9 12 1015.2 1015.1 0.0
31/06:00am 14.7 11.2 10.3 75 2.3 SSE 19 28 10 15 1015.0 1014.9 0.0
31/05:30am 14.2 10.2 10.4 78 2.0 SSE 22 33 12 18 1015.2 1015.1 0.0
31/05:00am 14.5 11.0 10.3 76 2.2 SSE 19 26 10 14 1015.0 1014.9 0.0
31/04:30am 14.7 10.3 10.3 75 2.3 SSE 24 37 13 20 1015.4 1015.3 0.0
31/04:00am 14.7 10.4 10.7 77 2.1 SSE 24 35 13 19 1015.6 1015.5 0.0
31/03:30am 14.2 11.2 10.6 79 1.9 SSE 17 22 9 12 1015.4 1015.3 0.0
31/03:00am 13.8 10.8 10.6 81 1.7 SSE 17 22 9 12 1015.2 1015.1 0.0
31/02:30am 13.5 10.8 10.5 82 1.6 SSE 15 19 8 10 1015.8 1015.7 0.0
31/02:00am 13.7 10.8 11.0 84 1.4 S 17 20 9 11 1016.0 1015.9 0.0
31/01:30am 13.3 10.6 10.3 82 1.6 S 15 19 8 10 1016.3 1016.2 0.0
31/01:00am 13.4 10.3 10.4 82 1.6 SSE 17 22 9 12 1016.0 1015.9 0.0
31/12:30am 12.8 10.7 9.6 81 1.6 SSE 11 13 6 7 1016.1 1016.0 0.0
31/12:00am 13.4 11.0 10.0 80 1.8 SSE 13 19 7 10 1016.2 1016.1 0.0
 
Date/Time
CDT
Temp
°C
App
Temp
°C
Dew
Point
Rel
Hum
%
Delta-T
°C
Wind Press
QNH
hPa
Press
MSL
hPa
Rain
since 9 am
mm
Dir
 
Spd
km/h
Gust
km/h
Spd
kts
Gust
kts
30/11:30pm 13.5 10.6 9.6 77 2.0 SSE 15 20 8 11 1016.3 1016.2 0.0
30/11:00pm 14.0 10.7 9.6 75 2.3 SSE 17 20 9 11 1016.4 1016.3 0.0
30/10:30pm 14.3 10.7 9.9 75 2.3 SSE 19 28 10 15 1016.4 1016.3 0.0
30/10:00pm 14.6 10.7 9.6 72 2.6 SSE 20 30 11 16 1016.3 1016.2 0.0
30/09:30pm 15.1 10.1 9.7 70 2.8 SSE 26 35 14 19 1016.4 1016.3 0.0
30/09:00pm 15.3 9.0 9.7 69 2.9 SSE 33 44 18 24 1016.0 1015.9 0.0
30/08:30pm 15.7 9.2 9.1 65 3.4 SSE 33 43 18 23 1015.7 1015.6 0.0
30/08:00pm 16.3 7.9 8.8 61 3.8 S 43 52 23 28 1015.4 1015.3 0.0
30/07:30pm 16.9 8.2 7.8 55 4.6 S 43 52 23 28 1015.1 1015.0 0.0
30/07:00pm 17.7 9.0 8.3 54 4.8 S 44 52 24 28 1015.0 1014.9 0.0
30/06:30pm 18.4 9.6 8.1 51 5.3 S 44 52 24 28 1015.0 1014.9 0.0
30/06:00pm 18.8 9.8 9.0 53 5.1 S 46 56 25 30 1014.9 1014.8 0.0
30/05:30pm 18.9 9.7 9.4 54 5.0 S 48 56 26 30 1014.9 1014.8 0.0
30/05:00pm 19.5 10.9 10.2 55 5.0 S 46 57 25 31 1015.1 1015.0 0.0
30/04:30pm 19.5 11.0 10.8 57 4.7 SSW 46 56 25 30 1015.1 1015.0 0.0
30/04:00pm 19.9 11.7 10.3 54 5.2 SSW 44 54 24 29 1015.2 1015.1 0.0
30/03:30pm 20.4 12.1 10.2 52 5.5 SSW 44 52 24 28 1015.5 1015.4 0.0
30/03:00pm 20.2 11.8 9.7 51 5.6 S 44 52 24 28 1015.7 1015.6 0.0
30/02:30pm 19.6 10.6 8.9 50 5.6 SSW 46 52 25 28 1015.9 1015.8 0.0
30/02:00pm 20.3 12.0 9.2 49 5.9 SSW 43 52 23 28 1016.2 1016.1 0.0
30/01:30pm 21.2 13.5 10.1 49 6.0 SSW 41 50 22 27 1016.5 1016.4 0.0
30/01:00pm 19.7 12.1 9.0 50 5.6 SSW 39 44 21 24 1016.9 1016.8 0.0
30/12:30pm 19.5 12.1 9.7 53 5.2 SSW 39 44 21 24 1017.3 1017.2 0.0
30/12:00pm 19.6 12.6 8.6 49 5.7 SSW 35 43 19 23 1017.9 1017.8 0.0
30/11:30am 19.3 13.2 9.8 54 5.0 SSW 32 37 17 20 1018.2 1018.1 0.0
30/11:00am 19.4 14.7 9.3 52 5.3 S 24 30 13 16 1018.4 1018.3 0.0
30/10:30am 19.6 16.7 8.3 48 5.8 SE 13 20 7 11 1018.7 1018.6 0.0
30/10:00am 18.9 15.8 8.8 52 5.3 SSE 15 24 8 13 1018.9 1018.8 0.0
30/09:30am 17.7 13.8 8.6 55 4.7 SE 19 26 10 14 1019.0 1018.9 0.0
30/09:00am 16.7 12.7 8.4 58 4.2 SE 19 28 10 15 1019.2 1019.1 0.0
30/08:30am 15.8 11.7 8.5 62 3.7 SE 20 30 11 16 1019.1 1019.0 0.0
30/08:00am 15.0 12.0 9.1 68 3.0 SE 15 20 8 11 1018.9 1018.8 0.0
30/07:30am 13.5 11.3 9.4 76 2.1 SE 11 17 6 9 1018.8 1018.7 0.0
30/07:00am 11.8 9.0 8.6 81 1.6 SSE 13 19 7 10 1018.6 1018.5 0.0
30/06:30am 11.5 8.3 8.4 81 1.5 SSE 15 17 8 9 1018.5 1018.4 0.0
30/06:00am 11.4 8.5 8.3 81 1.5 SSE 13 19 7 10 1018.3 1018.2 0.0
30/05:30am 11.5 8.7 8.4 81 1.5 SSE 13 19 7 10 1018.0 1017.9 0.0
30/05:00am 11.7 8.5 8.6 81 1.5 SSE 15 20 8 11 1017.7 1017.6 0.0
30/04:30am 12.1 8.6 8.8 80 1.6 SSE 17 20 9 11 1017.7 1017.6 0.0
30/04:00am 12.2 8.7 8.9 80 1.7 SSE 17 22 9 12 1017.8 1017.7 0.0
30/03:30am 12.3 8.8 8.8 79 1.7 SSE 17 24 9 13 1017.9 1017.8 0.0
30/03:00am 12.4 8.9 8.9 79 1.7 SSE 17 24 9 13 1017.9 1017.8 0.0
30/02:30am 12.2 8.6 8.5 78 1.8 SE 17 22 9 12 1017.9 1017.8 0.0
30/02:00am 12.4 8.5 8.5 77 1.9 SSE 19 24 10 13 1017.9 1017.8 0.0
30/01:30am 12.6 8.9 8.1 74 2.2 SSE 17 22 9 12 1017.9 1017.8 0.0
30/01:00am 13.0 9.3 8.1 72 2.4 SSE 17 22 9 12 1018.0 1017.9 0.0
30/12:30am 13.5 9.4 7.9 69 2.8 SSE 19 26 10 14 1018.1 1018.0 0.0
30/12:00am 14.1 10.1 8.1 67 3.0 SE 19 26 10 14 1018.3 1018.2 0.0
 
Date/Time
CDT
Temp
°C
App
Temp
°C
Dew
Point
Rel
Hum
%
Delta-T
°C
Wind Press
QNH
hPa
Press
MSL
hPa
Rain
since 9 am
mm
Dir
 
Spd
km/h
Gust
km/h
Spd
kts
Gust
kts
29/11:30pm 15.1 10.4 7.6 61 3.7 SE 22 33 12 18 1018.2 1018.1 0.0
29/11:00pm 15.4 11.1 7.7 60 3.8 SE 20 30 11 16 1018.2 1018.1 0.0
29/10:30pm 16.1 11.4 7.8 58 4.2 SE 22 33 12 18 1018.2 1018.1 0.0
29/10:00pm 16.7 11.8 8.4 58 4.2 SSE 24 37 13 20 1018.1 1018.0 0.0
29/09:30pm 17.4 12.5 8.5 56 4.6 SSE 24 32 13 17 1017.8 1017.7 0.0
29/09:00pm 17.9 13.5 10.3 61 4.0 SSE 24 33 13 18 1017.4 1017.3 0.0
29/08:30pm 18.3 13.3 11.1 63 3.9 SSE 28 39 15 21 1017.0 1016.9 0.0
29/08:00pm 19.4 13.9 11.7 61 4.3 S 32 39 17 21 1016.7 1016.6 0.0
29/07:30pm 19.7 13.1 12.5 63 4.0 S 39 50 21 27 1016.4 1016.3 0.0
29/07:00pm 20.3 13.3 12.5 61 4.4 S 41 50 22 27 1016.1 1016.0 0.0
29/06:30pm 19.8 13.1 13.5 67 3.6 S 41 48 22 26 1016.2 1016.1 0.0
29/06:00pm 20.7 13.8 12.9 61 4.4 S 41 48 22 26 1016.4 1016.3 0.0
29/05:30pm 20.6 13.4 13.1 62 4.3 S 43 48 23 26 1016.3 1016.2 0.0
29/05:00pm 20.4 13.1 12.9 62 4.3 S 43 50 23 27 1016.5 1016.4 0.0
29/04:30pm 21.0 13.3 13.2 61 4.5 SSW 46 54 25 29 1016.6 1016.5 0.0
29/04:00pm 21.1 13.3 13.0 60 4.6 SSW 46 52 25 28 1017.0 1016.9 0.0
29/03:30pm 20.9 13.0 12.8 60 4.6 SSW 46 54 25 29 1017.2 1017.1 0.0
29/03:00pm 21.3 13.3 13.5 61 4.5 SSW 48 57 26 31 1017.3 1017.2 0.0
29/02:30pm 21.2 13.2 13.4 61 4.5 S 48 57 26 31 1017.7 1017.6 0.0
29/02:00pm 21.7 14.3 12.5 56 5.2 S 43 54 23 29 1018.1 1018.0 0.0
29/01:30pm 21.6 14.7 12.7 57 5.0 SSW 41 52 22 28 1018.4 1018.3 0.0
29/01:00pm 21.6 15.1 13.0 58 4.9 SSW 39 46 21 25 1018.9 1018.8 0.0
29/12:36pm 21.9 17.4 12.5 55 5.3 S 28 44 15 24 1019.0 1018.9 0.0
29/12:30pm 23.1 20.1 11.8 49 6.4 SSE 19 32 10 17 1019.5 1019.4 0.0
29/12:00pm 23.3 19.1 7.4 36 8.3 SE 19 30 10 16 1019.8 1019.7 0.0
29/11:30am 23.3 18.9 7.4 36 8.3 SE 20 32 11 17 1020.1 1020.0 0.0
29/11:00am 22.4 17.6 7.4 38 7.8 E 22 35 12 19 1020.2 1020.1 0.0
29/10:30am 21.6 17.4 8.1 42 7.0 ESE 20 30 11 16 1020.3 1020.2 0.0
29/10:00am 20.4 15.9 8.7 47 6.1 E 22 33 12 18 1020.4 1020.3 0.0
29/09:30am 19.0 14.7 9.2 53 5.1 ESE 22 33 12 18 1020.6 1020.5 0.0

Other Formats:

Comma delimited format used in spreadsheet applications
http://www.bom.gov.au/fwo/IDS60801/IDS60801.94813.axf

JavaScript Object Notation format (JSON) in row-major order
http://www.bom.gov.au/fwo/IDS60801/IDS60801.94813.json